Time;durP1;ratioP1;P1;durP2;ratioP2;P2;SDS_P1;SDS_P2;PMS_P1;PMS_P2;Temp;Humidity;BMP_temperature;BMP_pressure;BME280_temperature;BME280_humidity;BME280_pressure;Samples;Min_cycle;Max_cycle;Signal;HPM_P1;HPM_P2
2021/07/08 00:01:37;;;;;;;2.00;0.70;;;24.60;61.60;;;;;;5072007;28;20047;-41
2021/07/08 00:04:03;;;;;;;1.45;0.75;;;24.60;61.60;;;;;;5072874;28;20037;-44
2021/07/08 00:06:31;;;;;;;1.70;0.90;;;24.60;61.40;;;;;;5071625;28;20027;-42
2021/07/08 00:08:58;;;;;;;2.10;0.80;;;24.60;61.40;;;;;;5072017;28;20369;-44
2021/07/08 00:11:25;;;;;;;1.90;0.90;;;24.60;61.60;;;;;;5071531;28;20105;-41
2021/07/08 00:13:50;;;;;;;2.05;0.98;;;24.60;61.70;;;;;;5071649;28;20402;-48
2021/07/08 00:16:24;;;;;;;3.65;1.00;;;24.60;61.70;;;;;;5071295;28;20063;-44
2021/07/08 00:18:53;;;;;;;2.03;0.93;;;24.60;61.70;;;;;;5077322;28;20028;-41
2021/07/08 00:21:20;;;;;;;1.33;0.90;;;24.60;61.60;;;;;;5071086;28;20035;-41
2021/07/08 00:23:46;;;;;;;2.20;0.90;;;24.60;61.60;;;;;;5071961;28;20028;-42
2021/07/08 00:26:15;;;;;;;1.35;0.73;;;24.60;61.60;;;;;;5071945;28;20145;-51
2021/07/08 00:28:41;;;;;;;1.95;0.68;;;24.60;61.60;;;;;;5079463;28;20476;-42
2021/07/08 00:31:10;;;;;;;1.73;0.80;;;24.60;61.70;;;;;;5092070;28;20039;-44
2021/07/08 00:33:36;;;;;;;1.42;0.80;;;24.50;61.70;;;;;;5091101;28;20059;-43
2021/07/08 00:36:03;;;;;;;1.98;0.90;;;24.50;61.80;;;;;;5092301;28;20082;-45
2021/07/08 00:38:28;;;;;;;1.77;0.80;;;24.50;61.80;;;;;;5083756;28;20170;-46
2021/07/08 00:40:54;;;;;;;3.35;0.63;;;24.50;61.80;;;;;;5071261;28;20115;-42
2021/07/08 00:43:20;;;;;;;0.73;0.50;;;24.60;61.80;;;;;;5070420;28;20033;-42
2021/07/08 00:45:46;;;;;;;5.25;0.60;;;24.50;61.70;;;;;;5071794;28;20029;-41
2021/07/08 00:48:11;;;;;;;1.85;0.90;;;24.50;61.80;;;;;;5075937;28;20032;-41
2021/07/08 00:50:42;;;;;;;1.35;0.60;;;24.60;61.70;;;;;;5071811;28;20515;-43
2021/07/08 00:53:10;;;;;;;1.88;0.70;;;24.60;61.80;;;;;;5071663;28;20029;-41
2021/07/08 00:55:41;;;;;;;1.13;0.60;;;24.60;61.80;;;;;;5070938;28;20450;-42
2021/07/08 00:58:09;;;;;;;2.10;0.70;;;24.50;61.80;;;;;;5074760;28;20554;-41
2021/07/08 01:00:42;;;;;;;2.67;1.92;;;24.60;61.80;;;;;;5090958;28;20097;-41
2021/07/08 01:03:10;;;;;;;1.80;0.60;;;24.50;61.80;;;;;;5092198;28;20443;-41
2021/07/08 01:05:41;;;;;;;1.33;0.75;;;24.60;61.80;;;;;;5089652;28;20124;-46
2021/07/08 01:08:08;;;;;;;1.20;0.80;;;24.50;61.90;;;;;;5090951;28;20031;-42
2021/07/08 01:10:34;;;;;;;2.60;0.88;;;24.50;61.90;;;;;;5089257;28;20127;-41
2021/07/08 01:12:59;;;;;;;2.67;0.80;;;24.50;61.90;;;;;;5090855;28;20560;-43
2021/07/08 01:15:25;;;;;;;1.90;0.80;;;24.50;61.90;;;;;;5090394;28;20024;-42
2021/07/08 01:17:54;;;;;;;1.88;0.90;;;24.60;61.90;;;;;;5089943;28;20060;-42
2021/07/08 01:20:22;;;;;;;0.80;0.68;;;24.50;61.90;;;;;;5070529;28;20078;-44
2021/07/08 01:22:48;;;;;;;1.05;0.52;;;24.50;62.00;;;;;;5071286;28;20052;-42
2021/07/08 01:25:15;;;;;;;1.02;0.73;;;24.50;62.00;;;;;;5071334;28;20403;-51
2021/07/08 01:27:41;;;;;;;3.78;0.93;;;24.50;62.00;;;;;;5070821;28;20055;-48
2021/07/08 01:30:13;;;;;;;1.88;0.90;;;24.50;62.00;;;;;;5090976;28;20461;-42
2021/07/08 01:32:41;;;;;;;;;;;24.50;62.00;;;;;;5091300;28;20032;-45
2021/07/08 01:35:09;;;;;;;1.25;0.80;;;24.50;62.00;;;;;;5091627;28;20302;-41
2021/07/08 01:37:35;;;;;;;1.95;0.70;;;24.60;61.90;;;;;;5090651;28;20217;-42
2021/07/08 01:40:01;;;;;;;2.38;0.98;;;24.50;61.90;;;;;;5073822;28;20032;-46
2021/07/08 01:42:30;;;;;;;2.58;0.70;;;24.50;61.80;;;;;;5074066;28;20023;-44
2021/07/08 01:44:59;;;;;;;0.98;0.70;;;24.50;61.90;;;;;;5074703;28;20027;-44
2021/07/08 01:47:24;;;;;;;3.13;1.00;;;24.50;62.00;;;;;;5073939;28;20040;-44
2021/07/08 01:49:51;;;;;;;3.50;0.98;;;24.50;62.00;;;;;;5078609;28;20033;-42
2021/07/08 01:52:20;;;;;;;2.10;0.80;;;24.50;62.00;;;;;;5084915;28;20028;-54
2021/07/08 01:54:48;;;;;;;1.50;0.95;;;24.50;62.00;;;;;;5076389;28;20036;-42
2021/07/08 01:57:14;;;;;;;1.95;1.13;;;24.50;62.00;;;;;;5094917;28;20027;-42
2021/07/08 01:59:39;;;;;;;3.42;0.90;;;24.50;62.10;;;;;;5078238;28;20464;-42
2021/07/08 02:02:05;;;;;;;2.40;1.17;;;24.50;62.70;;;;;;5083582;28;20349;-41
2021/07/08 02:04:31;;;;;;;0.93;0.82;;;24.50;62.10;;;;;;5093893;28;20046;-41
2021/07/08 02:06:57;;;;;;;2.17;1.00;;;24.50;62.10;;;;;;5094712;28;20020;-44
2021/07/08 02:09:25;;;;;;;2.33;0.80;;;24.50;62.20;;;;;;5079773;28;20091;-41
2021/07/08 02:11:51;;;;;;;2.50;1.00;;;24.50;62.20;;;;;;5081024;28;20120;-43
2021/07/08 02:14:16;;;;;;;1.40;0.88;;;24.50;62.30;;;;;;5094070;28;20099;-53
2021/07/08 02:16:43;;;;;;;5.30;1.10;;;24.50;62.30;;;;;;5094200;28;20538;-42
2021/07/08 02:19:08;;;;;;;2.35;1.00;;;24.50;62.30;;;;;;5086255;28;20024;-41
2021/07/08 02:21:34;;;;;;;1.92;1.23;;;24.50;62.40;;;;;;5077212;28;20028;-50
2021/07/08 02:24:00;;;;;;;2.83;1.00;;;24.50;62.40;;;;;;5094287;28;20437;-41
2021/07/08 02:26:26;;;;;;;2.47;0.80;;;24.50;62.30;;;;;;5093533;28;20028;-42
2021/07/08 02:28:52;;;;;;;1.40;0.85;;;24.50;62.40;;;;;;5074383;28;20115;-41
2021/07/08 02:31:23;;;;;;;2.28;1.05;;;24.50;62.40;;;;;;5075092;28;20061;-53
2021/07/08 02:33:49;;;;;;;1.23;1.00;;;24.50;62.40;;;;;;5093682;28;20107;-42
2021/07/08 02:36:15;;;;;;;1.48;1.15;;;24.50;62.40;;;;;;5094176;28;20067;-42
2021/07/08 02:38:41;;;;;;;4.80;0.85;;;24.50;62.40;;;;;;5075570;28;20107;-41
2021/07/08 02:41:07;;;;;;;1.65;0.80;;;24.50;62.50;;;;;;5073792;28;20054;-51
2021/07/08 02:43:35;;;;;;;1.92;0.60;;;24.50;62.40;;;;;;5093182;28;20066;-44
2021/07/08 02:46:01;;;;;;;3.00;1.10;;;24.50;62.40;;;;;;5093752;28;20034;-41
2021/07/08 02:48:27;;;;;;;1.65;0.80;;;24.50;62.40;;;;;;5059357;28;20405;-41
2021/07/08 02:50:54;;;;;;;0.93;0.70;;;24.50;62.50;;;;;;5072856;28;20036;-41
2021/07/08 02:53:21;;;;;;;2.90;0.98;;;24.50;62.50;;;;;;5091088;28;20032;-47
2021/07/08 02:55:47;;;;;;;1.95;0.75;;;24.50;62.50;;;;;;5093341;28;20024;-42
2021/07/08 02:58:13;;;;;;;2.25;0.80;;;24.50;62.50;;;;;;5079670;28;20111;-46
2021/07/08 03:00:39;;;;;;;2.00;0.90;;;24.50;62.50;;;;;;5072178;28;20131;-41
2021/07/08 03:03:05;;;;;;;1.60;1.08;;;24.50;62.50;;;;;;5073447;28;20056;-41
2021/07/08 03:05:31;;;;;;;2.55;1.00;;;24.50;62.50;;;;;;5072477;28;20020;-41
2021/07/08 03:07:57;;;;;;;1.92;0.98;;;24.50;62.50;;;;;;5083900;28;20039;-42
2021/07/08 03:10:26;;;;;;;1.30;0.90;;;24.50;62.50;;;;;;5092583;28;20093;-43
2021/07/08 03:12:53;;;;;;;1.60;0.82;;;24.50;62.50;;;;;;5079209;28;20108;-44
2021/07/08 03:15:19;;;;;;;1.30;0.95;;;24.50;62.60;;;;;;5072603;28;20033;-53
2021/07/08 03:17:45;;;;;;;2.15;0.98;;;24.40;62.60;;;;;;5072903;28;20029;-43
2021/07/08 03:20:17;;;;;;;1.17;0.70;;;24.50;62.60;;;;;;5072851;28;20074;-45
2021/07/08 03:22:44;;;;;;;3.10;1.08;;;24.50;62.50;;;;;;5084635;28;20071;-46
2021/07/08 03:25:12;;;;;;;1.90;0.93;;;24.50;62.50;;;;;;5093137;28;20078;-42
2021/07/08 03:27:38;;;;;;;2.97;0.80;;;24.50;62.60;;;;;;5084408;28;20028;-46
2021/07/08 03:30:05;;;;;;;1.38;0.85;;;24.40;62.60;;;;;;5072239;28;20078;-45
2021/07/08 03:32:31;;;;;;;3.05;0.80;;;24.50;62.70;;;;;;5081227;28;20090;-47
2021/07/08 03:34:57;;;;;;;1.42;0.90;;;24.50;62.60;;;;;;5092933;28;20024;-42
2021/07/08 03:37:22;;;;;;;1.35;0.98;;;24.50;62.60;;;;;;5087104;28;20461;-44
2021/07/08 03:39:51;;;;;;;1.60;0.95;;;24.50;62.60;;;;;;5072512;28;20025;-44
2021/07/08 03:42:17;;;;;;;2.53;0.93;;;24.40;62.60;;;;;;5072569;28;20116;-42
2021/07/08 03:44:43;;;;;;;1.10;0.90;;;24.40;62.60;;;;;;5071924;28;20103;-42
2021/07/08 03:47:08;;;;;;;1.55;0.98;;;24.40;62.60;;;;;;5057312;28;20039;-42
2021/07/08 03:49:34;;;;;;;3.10;0.90;;;24.40;62.70;;;;;;5091482;28;20465;-44
2021/07/08 03:52:00;;;;;;;1.73;1.20;;;24.40;62.70;;;;;;5086575;28;20021;-42
2021/07/08 03:54:25;;;;;;;1.40;0.70;;;24.40;62.60;;;;;;5071416;28;20025;-46
2021/07/08 03:56:51;;;;;;;3.30;1.05;;;24.40;62.60;;;;;;5072013;28;20032;-44
2021/07/08 03:59:17;;;;;;;1.60;1.02;;;24.40;62.60;;;;;;5034086;28;20052;-42
2021/07/08 04:01:43;;;;;;;4.45;0.90;;;24.40;62.50;;;;;;5070603;28;20040;-41
2021/07/08 04:04:08;;;;;;;1.05;0.80;;;24.40;62.50;;;;;;5092192;28;20025;-45
2021/07/08 04:06:34;;;;;;;1.23;0.85;;;24.40;62.50;;;;;;5091899;28;20028;-43
2021/07/08 04:09:00;;;;;;;1.42;0.80;;;24.40;62.60;;;;;;5080266;28;20121;-41
2021/07/08 04:11:26;;;;;;;2.55;0.90;;;24.30;62.60;;;;;;5071115;28;20028;-43
2021/07/08 04:13:51;;;;;;;1.70;0.90;;;24.30;62.70;;;;;;5051970;28;20028;-43
2021/07/08 04:16:17;;;;;;;1.50;0.95;;;24.30;62.60;;;;;;5051891;28;20039;-42
2021/07/08 04:18:42;;;;;;;1.73;1.15;;;24.30;62.50;;;;;;5066638;28;20090;-41
2021/07/08 04:21:08;;;;;;;1.30;1.10;;;24.40;62.50;;;;;;5071998;28;20082;-41
2021/07/08 04:23:34;;;;;;;1.60;0.95;;;24.30;62.40;;;;;;5088296;28;20028;-41
2021/07/08 04:25:59;;;;;;;1.23;0.80;;;24.40;62.40;;;;;;5092062;28;20022;-46
2021/07/08 04:28:25;;;;;;;1.75;0.85;;;24.40;62.40;;;;;;5078493;28;20097;-41
2021/07/08 04:30:51;;;;;;;1.20;1.00;;;24.40;62.40;;;;;;5071797;28;20035;-42
2021/07/08 04:33:17;;;;;;;1.88;0.93;;;24.40;62.40;;;;;;5086528;28;20028;-43
2021/07/08 04:35:44;;;;;;;1.58;0.70;;;24.40;62.50;;;;;;5090840;28;20500;-44
2021/07/08 04:38:11;;;;;;;1.40;0.85;;;24.40;62.50;;;;;;5091966;28;20077;-41
2021/07/08 04:40:38;;;;;;;2.55;0.93;;;24.40;62.50;;;;;;5091138;28;20059;-41
2021/07/08 04:43:05;;;;;;;3.33;1.05;;;24.40;62.50;;;;;;5078826;28;20033;-41
2021/07/08 04:45:31;;;;;;;1.17;0.80;;;24.40;62.40;;;;;;5084402;28;20071;-44
2021/07/08 04:47:57;;;;;;;1.80;1.13;;;24.40;62.40;;;;;;5091909;28;20457;-41
2021/07/08 04:50:24;;;;;;;3.45;1.02;;;24.30;62.40;;;;;;5091201;28;20103;-53
2021/07/08 04:52:50;;;;;;;2.40;0.90;;;24.30;62.40;;;;;;5080885;28;20028;-41
2021/07/08 04:55:18;;;;;;;2.10;0.98;;;24.30;62.50;;;;;;5083216;28;20040;-42
2021/07/08 04:57:45;;;;;;;1.92;0.90;;;24.30;62.40;;;;;;5090892;28;20024;-41
2021/07/08 05:00:12;;;;;;;2.67;0.95;;;24.30;62.40;;;;;;5086845;28;20121;-45
2021/07/08 05:02:39;;;;;;;1.90;0.90;;;24.30;62.40;;;;;;5070794;28;20041;-43
2021/07/08 05:05:07;;;;;;;2.63;1.20;;;24.30;62.50;;;;;;5072744;28;20033;-43
2021/07/08 05:07:34;;;;;;;1.48;0.90;;;24.30;62.40;;;;;;5070442;28;20032;-44
2021/07/08 05:10:00;;;;;;;1.35;1.00;;;24.30;62.50;;;;;;5071470;28;20393;-43
2021/07/08 05:12:25;;;;;;;3.83;1.10;;;24.30;62.40;;;;;;5075165;28;20044;-45
2021/07/08 05:14:51;;;;;;;1.10;0.90;;;24.30;62.40;;;;;;5073090;28;20028;-44
2021/07/08 05:17:18;;;;;;;0.90;0.80;;;24.30;62.40;;;;;;5075273;28;20060;-41
2021/07/08 05:19:44;;;;;;;1.08;0.90;;;24.30;62.40;;;;;;5074468;28;20875;-41
2021/07/08 05:22:10;;;;;;;1.27;0.88;;;24.40;62.40;;;;;;5079288;28;20024;-45
2021/07/08 05:24:37;;;;;;;1.42;1.00;;;24.40;63.00;;;;;;5056908;28;20036;-42
2021/07/08 05:27:03;;;;;;;2.22;1.20;;;24.40;62.40;;;;;;5075094;28;20078;-42
2021/07/08 05:29:30;;;;;;;1.33;1.05;;;24.40;62.40;;;;;;5074314;28;20440;-44
2021/07/08 05:31:56;;;;;;;1.20;0.90;;;24.40;62.40;;;;;;5076536;28;20417;-41
2021/07/08 05:34:21;;;;;;;3.50;1.20;;;24.40;62.40;;;;;;5077505;28;20054;-53
2021/07/08 05:36:47;;;;;;;1.08;0.75;;;24.40;62.40;;;;;;5073916;28;20446;-40
2021/07/08 05:39:13;;;;;;;1.40;1.02;;;24.40;62.30;;;;;;5074919;28;20058;-41
2021/07/08 05:41:39;;;;;;;2.63;1.00;;;24.40;62.40;;;;;;5073977;28;20060;-47
2021/07/08 05:44:06;;;;;;;1.33;1.20;;;24.40;62.40;;;;;;5094259;28;20492;-41
2021/07/08 05:46:32;;;;;;;4.65;1.05;;;24.40;62.20;;;;;;5073513;28;20489;-44
2021/07/08 05:48:57;;;;;;;4.30;1.38;;;24.40;62.50;;;;;;5063309;28;20032;-41
2021/07/08 05:51:23;;;;;;;3.17;1.30;;;24.40;62.60;;;;;;5060219;28;20458;-53
2021/07/08 05:53:50;;;;;;;4.15;1.20;;;24.40;62.90;;;;;;5063093;28;20025;-47
2021/07/08 05:56:15;;;;;;;5.85;1.38;;;24.40;62.70;;;;;;5044160;28;20025;-41
2021/07/08 05:58:41;;;;;;;14.50;2.08;;;24.40;62.60;;;;;;5065336;28;20051;-41
2021/07/08 06:01:07;;;;;;;4.60;1.40;;;24.50;62.60;;;;;;5060625;28;20049;-41
2021/07/08 06:03:33;;;;;;;8.90;1.58;;;24.50;62.40;;;;;;5064043;28;20389;-41
2021/07/08 06:05:58;;;;;;;5.05;1.50;;;24.60;62.50;;;;;;5067936;28;20024;-44
2021/07/08 06:08:24;;;;;;;6.57;1.42;;;24.60;62.90;;;;;;5062127;28;20028;-54
2021/07/08 06:10:49;;;;;;;5.78;1.70;;;24.70;62.90;;;;;;5060374;28;20484;-41
2021/07/08 06:13:15;;;;;;;6.70;1.60;;;24.70;62.60;;;;;;5070542;28;20036;-45
2021/07/08 06:15:41;;;;;;;8.52;1.83;;;24.70;63.20;;;;;;5051484;28;20052;-43
2021/07/08 06:18:06;;;;;;;4.07;1.15;;;24.70;62.80;;;;;;5064005;28;20367;-41
2021/07/08 06:20:33;;;;;;;4.75;1.20;;;24.70;62.70;;;;;;5060260;28;20832;-41
2021/07/08 06:22:59;;;;;;;6.60;1.70;;;24.70;63.00;;;;;;5070068;28;20086;-41
2021/07/08 06:25:29;;;;;;;4.20;1.58;;;24.70;63.00;;;;;;5051885;28;20390;-53
2021/07/08 06:27:55;;;;;;;6.10;1.98;;;24.60;62.80;;;;;;5062140;28;20150;-41
2021/07/08 06:30:21;;;;;;;1.90;1.38;;;23.90;64.10;;;;;;5064985;28;20896;-41
2021/07/08 06:32:46;;;;;;;2.88;1.40;;;23.40;66.00;;;;;;5069968;28;20472;-53
2021/07/08 06:35:16;;;;;;;3.75;1.70;;;23.10;67.30;;;;;;5069237;28;20073;-45
2021/07/08 06:37:42;;;;;;;2.70;1.80;;;23.00;67.80;;;;;;5068209;28;20036;-41
2021/07/08 06:40:09;;;;;;;6.10;2.70;;;23.00;68.00;;;;;;5064472;28;20028;-41
2021/07/08 06:42:35;;;;;;;4.80;1.88;;;23.00;68.30;;;;;;5059004;28;20063;-44
2021/07/08 06:45:01;;;;;;;6.75;1.92;;;22.90;68.50;;;;;;5060813;28;20055;-49
2021/07/08 06:47:32;;;;;;;7.75;2.50;;;22.80;68.50;;;;;;5062969;28;20110;-53
2021/07/08 06:49:57;;;;;;;3.70;1.90;;;22.80;68.90;;;;;;5061031;28;20025;-42
2021/07/08 06:52:23;;;;;;;6.05;2.08;;;22.80;68.80;;;;;;5068539;28;20477;-47
2021/07/08 06:54:49;;;;;;;3.83;2.58;;;22.70;68.90;;;;;;5062379;28;20032;-42
2021/07/08 06:57:14;;;;;;;4.03;2.40;;;22.60;69.10;;;;;;5049380;28;20078;-53
2021/07/08 06:59:40;;;;;;;6.57;3.00;;;22.60;69.50;;;;;;5061112;28;20114;-42
2021/07/08 07:02:06;;;;;;;4.85;2.20;;;22.50;69.50;;;;;;5063996;28;20367;-44
2021/07/08 07:04:32;;;;;;;4.93;1.88;;;22.60;69.40;;;;;;5067997;28;20036;-44
2021/07/08 07:06:58;;;;;;;3.30;2.30;;;22.60;69.60;;;;;;5060729;28;20020;-42
2021/07/08 07:09:23;;;;;;;3.42;2.08;;;22.60;70.00;;;;;;5062182;28;20029;-42
2021/07/08 07:11:49;;;;;;;2.55;1.75;;;22.60;70.00;;;;;;5061956;28;21639;-51
2021/07/08 07:14:15;;;;;;;8.55;1.90;;;22.60;69.10;;;;;;5070146;28;20027;-45
2021/07/08 07:16:40;;;;;;;4.50;2.00;;;22.60;69.30;;;;;;5056807;28;20381;-42
2021/07/08 07:19:06;;;;;;;3.90;1.58;;;22.70;69.30;;;;;;5037814;28;20024;-45
2021/07/08 07:21:31;;;;;;;2.80;1.30;;;22.60;69.20;;;;;;5061152;28;20085;-47
2021/07/08 07:23:58;;;;;;;4.43;1.65;;;22.60;69.70;;;;;;5080428;28;20108;-46
2021/07/08 07:26:24;;;;;;;4.00;1.50;;;22.60;69.30;;;;;;5066609;28;20040;-45
2021/07/08 07:28:50;;;;;;;5.03;1.60;;;22.50;69.00;;;;;;5054560;28;20130;-43
2021/07/08 07:31:16;;;;;;;4.40;1.50;;;22.40;69.10;;;;;;5060215;28;20102;-43
2021/07/08 07:33:42;;;;;;;3.67;1.30;;;22.70;68.60;;;;;;5059744;28;20025;-42
2021/07/08 07:36:10;;;;;;;3.22;1.02;;;23.10;67.30;;;;;;5059742;28;20025;-44
2021/07/08 07:38:37;;;;;;;2.05;1.13;;;23.40;66.30;;;;;;5067183;28;20036;-42
2021/07/08 07:41:03;;;;;;;1.98;1.13;;;23.60;65.70;;;;;;5060854;28;20025;-42
2021/07/08 07:43:29;;;;;;;2.40;0.98;;;23.70;65.40;;;;;;5059377;28;20086;-55
2021/07/08 07:45:55;;;;;;;1.63;0.98;;;23.80;65.20;;;;;;5058627;28;20475;-44
2021/07/08 07:48:20;;;;;;;1.48;1.00;;;23.80;65.60;;;;;;5067987;28;20090;-46
2021/07/08 07:50:46;;;;;;;1.60;0.90;;;23.90;64.90;;;;;;5060087;28;20036;-46
2021/07/08 07:53:12;;;;;;;1.52;1.02;;;23.90;64.70;;;;;;5056603;28;20467;-42
2021/07/08 07:55:38;;;;;;;4.03;1.00;;;24.00;64.70;;;;;;5053934;28;20039;-45
2021/07/08 07:58:05;;;;;;;4.68;0.80;;;24.00;64.60;;;;;;5066065;28;20423;-44
2021/07/08 08:00:31;;;;;;;4.63;1.00;;;24.00;64.50;;;;;;5063282;28;20040;-54
2021/07/08 08:02:57;;;;;;;2.53;1.20;;;24.00;64.40;;;;;;5068497;28;20028;-45
2021/07/08 08:10:38;;;;;;;2.25;0.90;;;24.10;64.30;;;;;;5061050;28;20122;-48
2021/07/08 08:13:05;;;;;;;2.10;1.00;;;24.20;64.20;;;;;;5076650;28;20123;-48
2021/07/08 08:15:31;;;;;;;2.17;0.90;;;24.20;64.20;;;;;;5057486;28;20029;-54
2021/07/08 08:18:00;;;;;;;1.75;1.00;;;24.20;64.10;;;;;;5067547;28;20029;-47
2021/07/08 08:20:26;;;;;;;3.50;1.05;;;24.20;64.10;;;;;;5054708;28;20064;-43
2021/07/08 08:22:52;;;;;;;2.22;1.00;;;24.20;64.00;;;;;;5067361;28;20063;-49
2021/07/08 08:25:17;;;;;;;1.60;1.17;;;24.20;64.00;;;;;;5062706;28;20492;-44
2021/07/08 08:27:43;;;;;;;2.05;1.02;;;24.20;64.30;;;;;;5063064;28;20028;-42
2021/07/08 08:30:12;;;;;;;2.45;1.20;;;24.20;64.40;;;;;;5055576;28;20031;-42
2021/07/08 08:32:38;;;;;;;1.27;1.00;;;24.20;64.40;;;;;;5059930;28;20086;-43
2021/07/08 08:35:04;;;;;;;1.42;0.90;;;24.20;64.30;;;;;;5051737;28;20025;-48
2021/07/08 08:37:30;;;;;;;1.15;0.88;;;24.30;63.90;;;;;;5047514;28;20111;-44
2021/07/08 08:39:56;;;;;;;0.93;0.82;;;24.30;63.80;;;;;;5059303;28;20518;-42
2021/07/08 08:42:24;;;;;;;1.30;1.10;;;24.30;63.60;;;;;;5062503;28;20029;-44
2021/07/08 08:44:50;;;;;;;2.22;1.02;;;24.40;63.50;;;;;;5067961;28;20033;-43
2021/07/08 08:47:16;;;;;;;2.45;0.88;;;24.40;63.40;;;;;;5066919;28;20021;-42
2021/07/08 08:49:42;;;;;;;1.42;0.90;;;24.40;63.30;;;;;;5070735;28;20039;-43
2021/07/08 08:52:13;;;;;;;1.90;0.90;;;24.40;63.40;;;;;;5061941;28;20537;-43
2021/07/08 08:54:42;;;;;;;1.40;1.30;;;24.40;63.70;;;;;;5066954;28;20504;-44
2021/07/08 08:57:08;;;;;;;1.60;1.00;;;24.40;63.70;;;;;;5066602;28;20032;-45
2021/07/08 08:59:35;;;;;;;1.70;1.10;;;24.40;63.80;;;;;;5078038;28;20401;-54
2021/07/08 09:02:09;;;;;;;2.95;1.00;;;24.40;63.70;;;;;;5068903;28;20032;-48
2021/07/08 09:04:35;;;;;;;1.77;0.90;;;24.40;64.40;;;;;;5058580;28;20035;-54
2021/07/08 09:07:21;;;;;;;2.38;1.10;;;24.40;63.90;;;;;;5056098;28;20021;-45
2021/07/08 09:09:47;;;;;;;1.35;1.00;;;24.40;63.90;;;;;;5068529;28;20039;-42
2021/07/08 09:12:14;;;;;;;0.98;0.88;;;24.40;63.90;;;;;;5068191;28;20052;-41
2021/07/08 09:14:40;;;;;;;4.10;1.20;;;24.40;63.80;;;;;;5073963;28;20035;-42
2021/07/08 09:17:20;;;;;;;1.02;0.93;;;24.50;63.90;;;;;;5063715;28;20123;-43
2021/07/08 09:19:47;;;;;;;2.35;1.20;;;24.50;63.70;;;;;;5067960;28;20067;-45
2021/07/08 09:22:27;;;;;;;1.67;1.15;;;24.50;63.80;;;;;;5072017;28;20041;-42
2021/07/08 09:24:52;;;;;;;1.25;0.82;;;24.50;63.80;;;;;;5061452;28;20486;-46
2021/07/08 09:27:23;;;;;;;2.35;1.00;;;24.50;63.80;;;;;;5060962;28;20114;-44
2021/07/08 09:29:49;;;;;;;2.53;1.23;;;24.50;63.90;;;;;;5067740;28;20033;-42
2021/07/08 09:32:20;;;;;;;1.55;1.00;;;24.40;64.20;;;;;;5072470;28;20056;-44
2021/07/08 09:34:50;;;;;;;2.88;1.08;;;24.40;64.30;;;;;;5067034;28;20089;-46
2021/07/08 09:37:28;;;;;;;3.03;1.48;;;24.40;64.30;;;;;;5070178;28;20033;-43
2021/07/08 09:39:55;;;;;;;2.00;1.23;;;24.30;64.40;;;;;;5076883;28;20134;-42
2021/07/08 09:42:37;;;;;;;2.38;1.33;;;24.30;64.30;;;;;;5071763;28;20037;-45
2021/07/08 09:45:14;;;;;;;2.88;1.13;;;24.30;64.30;;;;;;5064922;28;20056;-44
2021/07/08 09:47:41;;;;;;;3.60;1.30;;;24.30;64.20;;;;;;5063393;28;20032;-43
2021/07/08 09:50:30;;;;;;;6.25;1.15;;;24.40;64.20;;;;;;5073188;28;20059;-43
2021/07/08 09:53:16;;;;;;;2.22;1.63;;;24.40;64.10;;;;;;5061664;28;20037;-48
2021/07/08 09:58:50;;;;;;;2.30;1.30;;;24.40;64.00;;;;;;5050309;28;20029;-55
2021/07/08 10:01:16;;;;;;;3.10;1.45;;;24.40;64.00;;;;;;5058115;28;20115;-43
2021/07/08 10:03:44;;;;;;;2.90;1.50;;;24.30;63.90;;;;;;5055835;28;20052;-44
2021/07/08 10:06:11;;;;;;;2.97;1.60;;;24.40;63.80;;;;;;5060625;28;20099;-43
2021/07/08 10:08:37;;;;;;;2.30;1.15;;;24.40;63.80;;;;;;5059341;28;20121;-56
2021/07/08 10:11:04;;;;;;;1.50;1.23;;;24.40;63.70;;;;;;5064089;28;20029;-44
2021/07/08 10:13:32;;;;;;;2.45;1.45;;;24.30;63.60;;;;;;5067269;28;20172;-48
2021/07/08 10:16:00;;;;;;;2.80;1.50;;;24.30;63.60;;;;;;5062484;28;20032;-50
2021/07/08 10:18:29;;;;;;;4.43;1.77;;;24.30;63.40;;;;;;5062961;28;20027;-42
2021/07/08 10:20:55;;;;;;;2.38;1.25;;;24.40;63.40;;;;;;5066583;28;20044;-45
2021/07/08 10:23:22;;;;;;;1.98;1.13;;;24.40;63.50;;;;;;5073851;28;20068;-41
2021/07/08 10:25:49;;;;;;;2.25;1.27;;;24.40;63.30;;;;;;5062770;28;20538;-41
2021/07/08 10:28:15;;;;;;;2.10;1.20;;;24.40;63.20;;;;;;5060860;28;20033;-43
2021/07/08 10:30:43;;;;;;;1.65;1.23;;;24.50;63.10;;;;;;5058518;28;20033;-42
2021/07/08 10:33:10;;;;;;;2.08;1.20;;;24.50;63.00;;;;;;5069679;28;20028;-44
2021/07/08 10:35:43;;;;;;;2.80;1.40;;;24.60;62.90;;;;;;5060681;28;20543;-43
2021/07/08 10:38:27;;;;;;;2.47;1.10;;;24.60;62.90;;;;;;5068176;28;20181;-43
2021/07/08 10:40:56;;;;;;;1.55;1.30;;;24.60;63.00;;;;;;5071290;28;20028;-41
2021/07/08 10:43:36;;;;;;;2.38;1.50;;;24.60;62.80;;;;;;5065815;28;20043;-45
2021/07/08 10:46:16;;;;;;;4.20;1.88;;;24.60;63.00;;;;;;5068143;28;20029;-41
2021/07/08 10:48:49;;;;;;;2.30;1.38;;;24.60;63.10;;;;;;5056029;28;20071;-42
2021/07/08 10:51:39;;;;;;;3.03;1.60;;;24.60;63.10;;;;;;5066526;28;20060;-43
2021/07/08 10:54:27;;;;;;;2.45;1.45;;;24.60;63.20;;;;;;5058242;28;20482;-43
2021/07/08 10:56:54;;;;;;;2.97;1.73;;;24.60;63.20;;;;;;5056185;28;20028;-42
2021/07/08 10:59:20;;;;;;;2.67;1.20;;;24.60;63.40;;;;;;5062060;28;20381;-42
2021/07/08 11:01:54;;;;;;;1.92;1.23;;;24.60;63.30;;;;;;5062996;28;20035;-43
2021/07/08 11:04:41;;;;;;;2.40;1.20;;;24.50;63.00;;;;;;5061426;28;20029;-47
2021/07/08 11:07:15;;;;;;;2.70;1.52;;;24.60;63.00;;;;;;5063823;28;20054;-44
2021/07/08 11:10:02;;;;;;;1.63;1.30;;;24.60;63.10;;;;;;5083985;28;20028;-56
2021/07/08 11:12:35;;;;;;;2.05;1.33;;;24.60;62.90;;;;;;5061168;28;20037;-42
2021/07/08 11:15:03;;;;;;;3.38;1.58;;;24.50;62.70;;;;;;5062484;28;20056;-42
2021/07/08 11:17:45;;;;;;;3.78;1.63;;;24.60;62.80;;;;;;5069123;28;20028;-44
2021/07/08 11:20:29;;;;;;;2.25;1.20;;;24.50;62.70;;;;;;5064194;28;20028;-42
2021/07/08 11:22:56;;;;;;;3.25;1.48;;;24.60;62.80;;;;;;5058380;28;20021;-41
2021/07/08 11:25:41;;;;;;;1.33;0.88;;;24.50;62.60;;;;;;5057013;28;20029;-41
2021/07/08 11:28:27;;;;;;;1.63;1.30;;;24.50;62.50;;;;;;5062370;28;20052;-42
2021/07/08 11:31:07;;;;;;;2.15;1.25;;;24.50;62.70;;;;;;5056897;28;20032;-41
2021/07/08 11:33:37;;;;;;;1.92;1.10;;;24.50;62.60;;;;;;5058725;28;20477;-41
2021/07/08 11:36:21;;;;;;;1.88;1.50;;;24.50;62.60;;;;;;5062009;28;20054;-41
2021/07/08 11:38:49;;;;;;;2.08;1.33;;;24.50;62.50;;;;;;5079685;28;20036;-42
2021/07/08 11:41:15;;;;;;;1.20;1.10;;;24.60;62.60;;;;;;5060335;28;20035;-42
2021/07/08 11:43:51;;;;;;;1.90;1.15;;;24.60;62.60;;;;;;5057667;28;20421;-54
2021/07/08 11:46:17;;;;;;;1.23;1.13;;;24.60;62.60;;;;;;5061541;28;20035;-41
2021/07/08 11:48:48;;;;;;;1.33;0.98;;;24.60;62.50;;;;;;5073811;28;20350;-45
2021/07/08 11:51:15;;;;;;;1.33;1.20;;;24.60;62.60;;;;;;5084364;28;20033;-46
2021/07/08 11:53:42;;;;;;;2.03;0.95;;;24.50;62.60;;;;;;5083194;28;20638;-53
2021/07/08 11:56:08;;;;;;;1.70;1.17;;;24.50;62.50;;;;;;5082467;28;20031;-44
2021/07/08 11:58:34;;;;;;;0.95;0.80;;;24.60;62.50;;;;;;5071850;28;20032;-42
2021/07/08 12:01:16;;;;;;;1.45;1.20;;;24.60;62.50;;;;;;5071863;28;20056;-46
2021/07/08 12:03:45;;;;;;;1.13;1.02;;;24.60;62.50;;;;;;5072076;28;20028;-54
2021/07/08 12:06:20;;;;;;;1.50;0.95;;;24.60;62.50;;;;;;5063537;28;20085;-41
2021/07/08 12:09:01;;;;;;;1.77;1.20;;;24.60;62.50;;;;;;5048772;28;20032;-53
2021/07/08 12:11:35;;;;;;;1.88;1.10;;;24.60;62.50;;;;;;5068141;28;20366;-41
2021/07/08 12:14:11;;;;;;;1.15;1.05;;;24.60;62.40;;;;;;5055570;28;20066;-41
2021/07/08 12:16:43;;;;;;;1.55;1.20;;;24.60;62.40;;;;;;5064875;28;20082;-41
2021/07/08 12:19:15;;;;;;;2.58;1.20;;;24.60;62.40;;;;;;5062138;28;20029;-41
2021/07/08 12:21:43;;;;;;;2.15;1.30;;;24.60;62.30;;;;;;5052469;28;20035;-43
2021/07/08 12:24:25;;;;;;;1.35;1.05;;;24.60;62.40;;;;;;5054946;28;20025;-41
2021/07/08 12:26:52;;;;;;;;;;;24.60;62.40;;;;;;5063121;28;20029;-43
2021/07/08 12:29:34;;;;;;;2.10;1.08;;;24.60;62.40;;;;;;5059536;28;19917;-41
2021/07/08 12:32:08;;;;;;;1.83;0.93;;;24.60;62.50;;;;;;5063404;28;20047;-49
2021/07/08 12:34:37;;;;;;;2.42;1.27;;;24.60;62.50;;;;;;5050081;28;20041;-41
2021/07/08 12:37:36;;;;;;;3.22;1.05;;;24.60;62.50;;;;;;5056238;28;20088;-43
2021/07/08 12:40:08;;;;;;;0.65;0.63;;;24.60;62.60;;;;;;5063508;28;20025;-42
2021/07/08 12:42:42;;;;;;;2.00;1.10;;;24.60;62.60;;;;;;5066558;28;20532;-41
2021/07/08 12:45:10;;;;;;;2.83;1.10;;;24.60;62.60;;;;;;5066828;28;20028;-45
2021/07/08 12:47:36;;;;;;;1.30;0.90;;;24.60;62.60;;;;;;5072137;28;20024;-41
2021/07/08 12:50:04;;;;;;;1.20;1.00;;;24.60;62.60;;;;;;5060086;28;20108;-47
2021/07/08 12:52:31;;;;;;;4.60;1.17;;;24.60;62.60;;;;;;5058906;28;20045;-44
2021/07/08 12:54:56;;;;;;;1.08;0.90;;;24.60;62.60;;;;;;5064759;28;20024;-41
2021/07/08 12:57:22;;;;;;;1.27;1.00;;;24.60;62.60;;;;;;5086182;28;20036;-41
2021/07/08 13:00:20;;;;;;;1.08;0.98;;;24.60;62.60;;;;;;5090612;28;20044;-49
2021/07/08 13:02:52;;;;;;;2.13;0.90;;;24.60;62.60;;;;;;5007116;28;20102;-53